sensor_id;sensor_type;location;lat;lon;timestamp;P1;durP1;ratioP1;P2;durP2;ratioP2
23288;SDS011;11813;50.834;4.280;2022-07-10T00:00:31;8.47;;;3.80;;
23288;SDS011;11813;50.834;4.280;2022-07-10T00:02:58;6.40;;;3.27;;
23288;SDS011;11813;50.834;4.280;2022-07-10T00:05:24;4.60;;;2.87;;
23288;SDS011;11813;50.834;4.280;2022-07-10T00:07:51;9.77;;;3.90;;
23288;SDS011;11813;50.834;4.280;2022-07-10T00:10:17;7.87;;;3.23;;
23288;SDS011;11813;50.834;4.280;2022-07-10T00:12:45;9.63;;;3.57;;
23288;SDS011;11813;50.834;4.280;2022-07-10T00:15:11;5.57;;;3.03;;
23288;SDS011;11813;50.834;4.280;2022-07-10T00:17:38;10.27;;;4.37;;
23288;SDS011;11813;50.834;4.280;2022-07-10T00:20:04;8.70;;;3.77;;
23288;SDS011;11813;50.834;4.280;2022-07-10T00:22:31;6.90;;;3.70;;
23288;SDS011;11813;50.834;4.280;2022-07-10T00:24:59;7.90;;;3.60;;
23288;SDS011;11813;50.834;4.280;2022-07-10T00:27:26;10.67;;;3.53;;
23288;SDS011;11813;50.834;4.280;2022-07-10T00:29:51;6.33;;;3.63;;
23288;SDS011;11813;50.834;4.280;2022-07-10T00:32:17;7.03;;;3.27;;
23288;SDS011;11813;50.834;4.280;2022-07-10T00:34:42;4.00;;;3.10;;
23288;SDS011;11813;50.834;4.280;2022-07-10T00:37:08;7.53;;;3.50;;
23288;SDS011;11813;50.834;4.280;2022-07-10T00:39:33;7.50;;;3.60;;
23288;SDS011;11813;50.834;4.280;2022-07-10T00:42:06;8.03;;;3.53;;
23288;SDS011;11813;50.834;4.280;2022-07-10T00:44:33;6.60;;;3.10;;
23288;SDS011;11813;50.834;4.280;2022-07-10T00:46:59;8.23;;;3.10;;
23288;SDS011;11813;50.834;4.280;2022-07-10T00:49:25;6.03;;;3.20;;
23288;SDS011;11813;50.834;4.280;2022-07-10T00:51:50;6.70;;;3.60;;
23288;SDS011;11813;50.834;4.280;2022-07-10T00:54:18;6.80;;;3.10;;
23288;SDS011;11813;50.834;4.280;2022-07-10T00:56:44;8.07;;;3.50;;
23288;SDS011;11813;50.834;4.280;2022-07-10T00:59:09;7.27;;;3.50;;
23288;SDS011;11813;50.834;4.280;2022-07-10T01:01:35;5.13;;;3.57;;
23288;SDS011;11813;50.834;4.280;2022-07-10T01:04:01;6.70;;;3.37;;
23288;SDS011;11813;50.834;4.280;2022-07-10T01:06:27;7.47;;;3.30;;
23288;SDS011;11813;50.834;4.280;2022-07-10T01:08:52;8.87;;;3.87;;
23288;SDS011;11813;50.834;4.280;2022-07-10T01:11:18;5.90;;;3.43;;
23288;SDS011;11813;50.834;4.280;2022-07-10T01:13:44;10.10;;;3.40;;
23288;SDS011;11813;50.834;4.280;2022-07-10T01:16:11;7.57;;;3.13;;
23288;SDS011;11813;50.834;4.280;2022-07-10T01:18:37;8.30;;;3.43;;
23288;SDS011;11813;50.834;4.280;2022-07-10T01:21:03;8.27;;;3.50;;
23288;SDS011;11813;50.834;4.280;2022-07-10T01:23:28;4.90;;;2.97;;
23288;SDS011;11813;50.834;4.280;2022-07-10T01:25:54;9.90;;;3.33;;
23288;SDS011;11813;50.834;4.280;2022-07-10T01:28:20;11.83;;;3.23;;
23288;SDS011;11813;50.834;4.280;2022-07-10T01:30:46;8.83;;;3.47;;
23288;SDS011;11813;50.834;4.280;2022-07-10T01:33:12;5.73;;;3.37;;
23288;SDS011;11813;50.834;4.280;2022-07-10T01:35:38;12.00;;;3.20;;
23288;SDS011;11813;50.834;4.280;2022-07-10T01:38:04;6.37;;;3.00;;
23288;SDS011;11813;50.834;4.280;2022-07-10T01:40:30;7.97;;;3.33;;
23288;SDS011;11813;50.834;4.280;2022-07-10T01:42:56;6.23;;;3.20;;
23288;SDS011;11813;50.834;4.280;2022-07-10T01:45:21;6.27;;;3.07;;
23288;SDS011;11813;50.834;4.280;2022-07-10T01:47:47;9.37;;;3.20;;
23288;SDS011;11813;50.834;4.280;2022-07-10T01:50:13;8.73;;;3.37;;
23288;SDS011;11813;50.834;4.280;2022-07-10T01:52:39;10.43;;;3.30;;
23288;SDS011;11813;50.834;4.280;2022-07-10T01:55:05;8.13;;;3.17;;
23288;SDS011;11813;50.834;4.280;2022-07-10T01:57:31;8.27;;;3.20;;
23288;SDS011;11813;50.834;4.280;2022-07-10T01:59:57;6.77;;;3.10;;
23288;SDS011;11813;50.834;4.280;2022-07-10T02:02:23;7.30;;;3.50;;
23288;SDS011;11813;50.834;4.280;2022-07-10T02:04:49;7.73;;;3.07;;
23288;SDS011;11813;50.834;4.280;2022-07-10T02:07:15;3.90;;;3.00;;
23288;SDS011;11813;50.834;4.280;2022-07-10T02:09:43;7.20;;;2.70;;
23288;SDS011;11813;50.834;4.280;2022-07-10T02:12:10;6.30;;;3.00;;
23288;SDS011;11813;50.834;4.280;2022-07-10T02:14:38;7.00;;;3.30;;
23288;SDS011;11813;50.834;4.280;2022-07-10T02:17:05;5.90;;;3.17;;
23288;SDS011;11813;50.834;4.280;2022-07-10T02:19:31;6.90;;;3.37;;
23288;SDS011;11813;50.834;4.280;2022-07-10T02:21:57;7.10;;;3.53;;
23288;SDS011;11813;50.834;4.280;2022-07-10T02:24:23;7.30;;;3.37;;
23288;SDS011;11813;50.834;4.280;2022-07-10T02:26:49;9.87;;;3.53;;
23288;SDS011;11813;50.834;4.280;2022-07-10T02:29:14;8.00;;;3.40;;
23288;SDS011;11813;50.834;4.280;2022-07-10T02:31:40;8.20;;;3.93;;
23288;SDS011;11813;50.834;4.280;2022-07-10T02:34:07;6.33;;;4.07;;
23288;SDS011;11813;50.834;4.280;2022-07-10T02:36:33;5.57;;;3.50;;
23288;SDS011;11813;50.834;4.280;2022-07-10T02:38:59;7.07;;;3.57;;
23288;SDS011;11813;50.834;4.280;2022-07-10T02:41:25;10.83;;;4.80;;
23288;SDS011;11813;50.834;4.280;2022-07-10T02:43:51;6.10;;;3.70;;
23288;SDS011;11813;50.834;4.280;2022-07-10T02:46:17;5.13;;;3.70;;
23288;SDS011;11813;50.834;4.280;2022-07-10T02:48:42;7.20;;;3.63;;
23288;SDS011;11813;50.834;4.280;2022-07-10T02:51:08;6.83;;;3.67;;
23288;SDS011;11813;50.834;4.280;2022-07-10T02:53:34;15.10;;;4.73;;
23288;SDS011;11813;50.834;4.280;2022-07-10T02:55:59;9.93;;;3.60;;
23288;SDS011;11813;50.834;4.280;2022-07-10T02:58:25;11.17;;;4.10;;
23288;SDS011;11813;50.834;4.280;2022-07-10T03:00:51;7.73;;;4.23;;
23288;SDS011;11813;50.834;4.280;2022-07-10T03:03:17;6.97;;;3.63;;
23288;SDS011;11813;50.834;4.280;2022-07-10T03:05:45;6.47;;;3.33;;
23288;SDS011;11813;50.834;4.280;2022-07-10T03:08:11;6.70;;;3.77;;
23288;SDS011;11813;50.834;4.280;2022-07-10T03:10:37;5.50;;;3.60;;
23288;SDS011;11813;50.834;4.280;2022-07-10T03:13:03;6.27;;;3.83;;
23288;SDS011;11813;50.834;4.280;2022-07-10T03:15:28;7.13;;;3.53;;
23288;SDS011;11813;50.834;4.280;2022-07-10T03:17:54;7.70;;;3.97;;
23288;SDS011;11813;50.834;4.280;2022-07-10T03:20:20;6.30;;;3.67;;
23288;SDS011;11813;50.834;4.280;2022-07-10T03:22:45;9.07;;;4.37;;
23288;SDS011;11813;50.834;4.280;2022-07-10T03:25:11;9.23;;;3.80;;
23288;SDS011;11813;50.834;4.280;2022-07-10T03:27:38;7.17;;;3.83;;
23288;SDS011;11813;50.834;4.280;2022-07-10T03:30:04;4.40;;;3.90;;
23288;SDS011;11813;50.834;4.280;2022-07-10T03:32:30;6.20;;;3.30;;
23288;SDS011;11813;50.834;4.280;2022-07-10T03:34:57;6.07;;;3.73;;
23288;SDS011;11813;50.834;4.280;2022-07-10T03:37:22;6.00;;;3.70;;
23288;SDS011;11813;50.834;4.280;2022-07-10T03:39:48;6.37;;;3.93;;
23288;SDS011;11813;50.834;4.280;2022-07-10T03:42:14;8.30;;;4.13;;
23288;SDS011;11813;50.834;4.280;2022-07-10T03:44:40;5.87;;;4.13;;
23288;SDS011;11813;50.834;4.280;2022-07-10T03:47:05;6.87;;;3.93;;
23288;SDS011;11813;50.834;4.280;2022-07-10T03:49:31;9.53;;;4.73;;
23288;SDS011;11813;50.834;4.280;2022-07-10T03:52:00;8.23;;;4.60;;
23288;SDS011;11813;50.834;4.280;2022-07-10T03:54:28;11.70;;;4.80;;
23288;SDS011;11813;50.834;4.280;2022-07-10T03:56:55;9.00;;;4.53;;
23288;SDS011;11813;50.834;4.280;2022-07-10T03:59:39;12.27;;;4.73;;
23288;SDS011;11813;50.834;4.280;2022-07-10T04:02:05;8.53;;;4.50;;
23288;SDS011;11813;50.834;4.280;2022-07-10T04:04:31;11.20;;;4.17;;
23288;SDS011;11813;50.834;4.280;2022-07-10T04:06:57;6.77;;;4.27;;
23288;SDS011;11813;50.834;4.280;2022-07-10T04:09:23;8.10;;;4.83;;
23288;SDS011;11813;50.834;4.280;2022-07-10T04:11:48;9.37;;;5.23;;
23288;SDS011;11813;50.834;4.280;2022-07-10T04:14:14;11.20;;;4.30;;
23288;SDS011;11813;50.834;4.280;2022-07-10T04:16:39;6.57;;;4.10;;
23288;SDS011;11813;50.834;4.280;2022-07-10T04:19:05;7.30;;;4.50;;
23288;SDS011;11813;50.834;4.280;2022-07-10T04:21:30;8.00;;;4.20;;
23288;SDS011;11813;50.834;4.280;2022-07-10T04:23:56;12.47;;;4.60;;
23288;SDS011;11813;50.834;4.280;2022-07-10T04:26:22;5.27;;;3.90;;
23288;SDS011;11813;50.834;4.280;2022-07-10T04:28:47;7.30;;;4.90;;
23288;SDS011;11813;50.834;4.280;2022-07-10T04:31:13;6.00;;;4.67;;
23288;SDS011;11813;50.834;4.280;2022-07-10T04:33:39;7.40;;;5.03;;
23288;SDS011;11813;50.834;4.280;2022-07-10T04:36:04;9.27;;;4.83;;
23288;SDS011;11813;50.834;4.280;2022-07-10T04:38:30;8.07;;;4.80;;
23288;SDS011;11813;50.834;4.280;2022-07-10T04:40:56;9.57;;;5.00;;
23288;SDS011;11813;50.834;4.280;2022-07-10T04:43:22;8.63;;;4.53;;
23288;SDS011;11813;50.834;4.280;2022-07-10T04:45:48;8.73;;;4.33;;
23288;SDS011;11813;50.834;4.280;2022-07-10T04:48:13;10.47;;;4.30;;
23288;SDS011;11813;50.834;4.280;2022-07-10T04:50:39;9.03;;;4.50;;
23288;SDS011;11813;50.834;4.280;2022-07-10T04:53:04;6.83;;;4.93;;
23288;SDS011;11813;50.834;4.280;2022-07-10T04:55:30;7.10;;;4.20;;
23288;SDS011;11813;50.834;4.280;2022-07-10T04:57:56;7.33;;;4.47;;
23288;SDS011;11813;50.834;4.280;2022-07-10T05:00:21;10.23;;;4.73;;
23288;SDS011;11813;50.834;4.280;2022-07-10T05:02:47;11.80;;;4.97;;
23288;SDS011;11813;50.834;4.280;2022-07-10T05:05:12;7.77;;;4.70;;
23288;SDS011;11813;50.834;4.280;2022-07-10T05:07:38;5.37;;;4.33;;
23288;SDS011;11813;50.834;4.280;2022-07-10T05:10:04;8.50;;;4.80;;
23288;SDS011;11813;50.834;4.280;2022-07-10T05:12:30;10.83;;;4.70;;
23288;SDS011;11813;50.834;4.280;2022-07-10T05:14:56;9.50;;;4.57;;
23288;SDS011;11813;50.834;4.280;2022-07-10T05:17:22;7.63;;;4.00;;
23288;SDS011;11813;50.834;4.280;2022-07-10T05:19:48;6.57;;;3.77;;
23288;SDS011;11813;50.834;4.280;2022-07-10T05:22:13;5.50;;;4.00;;
23288;SDS011;11813;50.834;4.280;2022-07-10T05:24:39;8.17;;;3.80;;
23288;SDS011;11813;50.834;4.280;2022-07-10T05:27:05;10.70;;;4.23;;
23288;SDS011;11813;50.834;4.280;2022-07-10T05:29:31;6.97;;;4.23;;
23288;SDS011;11813;50.834;4.280;2022-07-10T05:31:56;8.83;;;4.23;;
23288;SDS011;11813;50.834;4.280;2022-07-10T05:34:22;9.00;;;4.37;;
23288;SDS011;11813;50.834;4.280;2022-07-10T05:36:47;6.03;;;4.43;;
23288;SDS011;11813;50.834;4.280;2022-07-10T05:39:13;6.00;;;4.50;;
23288;SDS011;11813;50.834;4.280;2022-07-10T05:41:38;7.77;;;4.50;;
23288;SDS011;11813;50.834;4.280;2022-07-10T05:44:04;8.97;;;4.40;;
23288;SDS011;11813;50.834;4.280;2022-07-10T05:46:30;5.97;;;3.70;;
23288;SDS011;11813;50.834;4.280;2022-07-10T05:48:55;8.93;;;4.70;;
23288;SDS011;11813;50.834;4.280;2022-07-10T05:51:21;10.23;;;4.50;;
23288;SDS011;11813;50.834;4.280;2022-07-10T05:53:46;11.07;;;4.10;;
23288;SDS011;11813;50.834;4.280;2022-07-10T05:56:12;9.30;;;3.60;;
23288;SDS011;11813;50.834;4.280;2022-07-10T05:58:38;7.40;;;3.97;;
23288;SDS011;11813;50.834;4.280;2022-07-10T06:01:03;8.43;;;3.47;;
23288;SDS011;11813;50.834;4.280;2022-07-10T06:03:29;7.03;;;3.07;;
23288;SDS011;11813;50.834;4.280;2022-07-10T06:05:55;7.00;;;2.67;;
23288;SDS011;11813;50.834;4.280;2022-07-10T06:08:21;8.27;;;2.97;;
23288;SDS011;11813;50.834;4.280;2022-07-10T06:10:46;5.50;;;2.63;;
23288;SDS011;11813;50.834;4.280;2022-07-10T06:13:12;5.87;;;3.00;;
23288;SDS011;11813;50.834;4.280;2022-07-10T06:15:37;4.13;;;2.33;;
23288;SDS011;11813;50.834;4.280;2022-07-10T06:18:03;7.53;;;2.70;;
23288;SDS011;11813;50.834;4.280;2022-07-10T06:20:29;4.20;;;2.13;;
23288;SDS011;11813;50.834;4.280;2022-07-10T06:22:56;5.77;;;2.30;;
23288;SDS011;11813;50.834;4.280;2022-07-10T06:25:22;4.97;;;2.13;;
23288;SDS011;11813;50.834;4.280;2022-07-10T06:27:47;4.73;;;2.17;;
23288;SDS011;11813;50.834;4.280;2022-07-10T06:30:13;6.80;;;3.00;;
23288;SDS011;11813;50.834;4.280;2022-07-10T06:32:38;7.50;;;2.63;;
23288;SDS011;11813;50.834;4.280;2022-07-10T06:35:04;9.60;;;2.77;;
23288;SDS011;11813;50.834;4.280;2022-07-10T06:37:32;8.90;;;2.77;;
23288;SDS011;11813;50.834;4.280;2022-07-10T06:39:58;7.00;;;2.77;;
23288;SDS011;11813;50.834;4.280;2022-07-10T06:42:24;7.93;;;2.70;;
23288;SDS011;11813;50.834;4.280;2022-07-10T06:44:49;9.20;;;3.50;;
23288;SDS011;11813;50.834;4.280;2022-07-10T06:47:16;6.33;;;2.57;;
23288;SDS011;11813;50.834;4.280;2022-07-10T06:50:02;5.17;;;2.53;;
23288;SDS011;11813;50.834;4.280;2022-07-10T06:52:32;5.30;;;2.73;;
23288;SDS011;11813;50.834;4.280;2022-07-10T06:54:59;7.77;;;3.07;;
23288;SDS011;11813;50.834;4.280;2022-07-10T06:57:26;7.17;;;2.57;;
23288;SDS011;11813;50.834;4.280;2022-07-10T06:59:51;5.17;;;2.50;;
23288;SDS011;11813;50.834;4.280;2022-07-10T07:02:17;6.97;;;2.73;;
23288;SDS011;11813;50.834;4.280;2022-07-10T07:04:43;6.90;;;2.20;;
23288;SDS011;11813;50.834;4.280;2022-07-10T07:07:10;5.43;;;2.10;;
23288;SDS011;11813;50.834;4.280;2022-07-10T07:09:39;6.10;;;2.30;;
23288;SDS011;11813;50.834;4.280;2022-07-10T07:12:05;5.63;;;2.60;;
23288;SDS011;11813;50.834;4.280;2022-07-10T07:14:31;11.27;;;3.13;;
23288;SDS011;11813;50.834;4.280;2022-07-10T07:16:58;6.13;;;2.67;;
23288;SDS011;11813;50.834;4.280;2022-07-10T07:19:28;8.33;;;2.10;;
23288;SDS011;11813;50.834;4.280;2022-07-10T07:21:59;5.07;;;2.10;;
23288;SDS011;11813;50.834;4.280;2022-07-10T07:24:44;10.07;;;2.70;;
23288;SDS011;11813;50.834;4.280;2022-07-10T07:27:10;5.70;;;2.30;;
23288;SDS011;11813;50.834;4.280;2022-07-10T07:29:37;6.53;;;2.03;;
23288;SDS011;11813;50.834;4.280;2022-07-10T07:32:02;7.13;;;1.90;;
23288;SDS011;11813;50.834;4.280;2022-07-10T07:34:29;6.03;;;2.00;;
23288;SDS011;11813;50.834;4.280;2022-07-10T07:36:55;7.00;;;1.97;;
23288;SDS011;11813;50.834;4.280;2022-07-10T07:39:22;3.57;;;2.00;;
23288;SDS011;11813;50.834;4.280;2022-07-10T07:41:47;9.10;;;2.40;;
23288;SDS011;11813;50.834;4.280;2022-07-10T07:44:13;10.50;;;2.17;;
23288;SDS011;11813;50.834;4.280;2022-07-10T07:46:41;7.47;;;2.37;;
23288;SDS011;11813;50.834;4.280;2022-07-10T07:49:06;5.40;;;2.00;;
23288;SDS011;11813;50.834;4.280;2022-07-10T07:51:32;9.83;;;2.47;;
23288;SDS011;11813;50.834;4.280;2022-07-10T07:53:58;6.70;;;2.20;;
23288;SDS011;11813;50.834;4.280;2022-07-10T07:56:23;10.00;;;2.37;;
23288;SDS011;11813;50.834;4.280;2022-07-10T07:58:49;8.10;;;2.33;;
23288;SDS011;11813;50.834;4.280;2022-07-10T08:01:15;6.30;;;2.25;;
23288;SDS011;11813;50.834;4.280;2022-07-10T08:03:41;3.33;;;1.67;;
23288;SDS011;11813;50.834;4.280;2022-07-10T08:06:06;3.97;;;1.63;;
23288;SDS011;11813;50.834;4.280;2022-07-10T08:08:33;4.70;;;1.70;;
23288;SDS011;11813;50.834;4.280;2022-07-10T08:10:58;5.85;;;1.83;;
23288;SDS011;11813;50.834;4.280;2022-07-10T08:13:24;3.10;;;1.50;;
23288;SDS011;11813;50.834;4.280;2022-07-10T08:15:51;4.22;;;1.63;;
23288;SDS011;11813;50.834;4.280;2022-07-10T08:18:16;6.53;;;2.07;;
23288;SDS011;11813;50.834;4.280;2022-07-10T08:20:42;3.63;;;1.88;;
23288;SDS011;11813;50.834;4.280;2022-07-10T08:23:07;6.53;;;2.27;;
23288;SDS011;11813;50.834;4.280;2022-07-10T08:25:33;6.38;;;2.00;;
23288;SDS011;11813;50.834;4.280;2022-07-10T08:28:01;5.13;;;1.85;;
23288;SDS011;11813;50.834;4.280;2022-07-10T08:30:28;6.43;;;2.08;;
23288;SDS011;11813;50.834;4.280;2022-07-10T08:32:54;5.57;;;1.60;;
23288;SDS011;11813;50.834;4.280;2022-07-10T08:35:20;5.78;;;1.90;;
23288;SDS011;11813;50.834;4.280;2022-07-10T08:37:46;5.22;;;1.88;;
23288;SDS011;11813;50.834;4.280;2022-07-10T08:40:13;4.47;;;2.28;;
23288;SDS011;11813;50.834;4.280;2022-07-10T08:42:40;3.95;;;1.98;;
23288;SDS011;11813;50.834;4.280;2022-07-10T08:45:06;3.22;;;1.50;;
23288;SDS011;11813;50.834;4.280;2022-07-10T08:47:34;7.22;;;1.92;;
23288;SDS011;11813;50.834;4.280;2022-07-10T08:50:00;7.80;;;2.38;;
23288;SDS011;11813;50.834;4.280;2022-07-10T08:52:26;4.28;;;1.70;;
23288;SDS011;11813;50.834;4.280;2022-07-10T08:54:53;4.25;;;1.88;;
23288;SDS011;11813;50.834;4.280;2022-07-10T08:57:20;6.00;;;2.13;;
23288;SDS011;11813;50.834;4.280;2022-07-10T08:59:48;2.38;;;1.52;;
23288;SDS011;11813;50.834;4.280;2022-07-10T09:02:13;4.85;;;1.63;;
23288;SDS011;11813;50.834;4.280;2022-07-10T09:04:39;3.55;;;1.70;;
23288;SDS011;11813;50.834;4.280;2022-07-10T09:07:05;4.65;;;1.80;;
23288;SDS011;11813;50.834;4.280;2022-07-10T09:09:30;7.78;;;1.95;;
23288;SDS011;11813;50.834;4.280;2022-07-10T09:11:56;4.15;;;1.92;;
23288;SDS011;11813;50.834;4.280;2022-07-10T09:14:23;4.38;;;1.85;;
23288;SDS011;11813;50.834;4.280;2022-07-10T09:16:52;5.60;;;2.00;;
23288;SDS011;11813;50.834;4.280;2022-07-10T09:19:22;4.60;;;1.70;;
23288;SDS011;11813;50.834;4.280;2022-07-10T09:21:53;3.85;;;2.10;;
23288;SDS011;11813;50.834;4.280;2022-07-10T09:24:24;3.55;;;1.83;;
23288;SDS011;11813;50.834;4.280;2022-07-10T09:29:22;3.92;;;1.92;;
23288;SDS011;11813;50.834;4.280;2022-07-10T09:32:09;2.67;;;1.48;;
23288;SDS011;11813;50.834;4.280;2022-07-10T09:37:36;4.40;;;1.60;;
23288;SDS011;11813;50.834;4.280;2022-07-10T09:40:05;3.38;;;1.80;;
23288;SDS011;11813;50.834;4.280;2022-07-10T09:42:39;5.80;;;2.10;;
23288;SDS011;11813;50.834;4.280;2022-07-10T09:47:38;6.75;;;2.05;;
23288;SDS011;11813;50.834;4.280;2022-07-10T09:52:54;4.80;;;2.10;;
23288;SDS011;11813;50.834;4.280;2022-07-10T09:55:21;4.95;;;1.55;;
23288;SDS011;11813;50.834;4.280;2022-07-10T09:57:55;6.15;;;1.88;;
23288;SDS011;11813;50.834;4.280;2022-07-10T10:00:28;5.20;;;1.95;;
23288;SDS011;11813;50.834;4.280;2022-07-10T10:02:59;2.22;;;1.58;;
23288;SDS011;11813;50.834;4.280;2022-07-10T10:10:50;5.45;;;3.33;;
23288;SDS011;11813;50.834;4.280;2022-07-10T10:13:20;6.75;;;3.25;;
23288;SDS011;11813;50.834;4.280;2022-07-10T10:15:47;4.57;;;2.40;;
23288;SDS011;11813;50.834;4.280;2022-07-10T10:18:15;6.28;;;2.60;;
23288;SDS011;11813;50.834;4.280;2022-07-10T10:20:42;5.43;;;2.15;;
23288;SDS011;11813;50.834;4.280;2022-07-10T10:23:15;3.65;;;2.03;;
23288;SDS011;11813;50.834;4.280;2022-07-10T10:25:44;4.88;;;2.08;;
23288;SDS011;11813;50.834;4.280;2022-07-10T10:28:10;3.88;;;2.53;;
23288;SDS011;11813;50.834;4.280;2022-07-10T10:30:42;4.90;;;2.45;;
23288;SDS011;11813;50.834;4.280;2022-07-10T10:35:55;10.00;;;2.38;;
23288;SDS011;11813;50.834;4.280;2022-07-10T10:38:21;7.28;;;2.85;;
23288;SDS011;11813;50.834;4.280;2022-07-10T10:40:47;3.15;;;2.55;;
23288;SDS011;11813;50.834;4.280;2022-07-10T10:43:22;4.15;;;2.53;;
23288;SDS011;11813;50.834;4.280;2022-07-10T10:45:49;6.70;;;2.50;;
23288;SDS011;11813;50.834;4.280;2022-07-10T10:48:17;3.25;;;2.38;;
23288;SDS011;11813;50.834;4.280;2022-07-10T10:50:46;6.03;;;2.60;;
23288;SDS011;11813;50.834;4.280;2022-07-10T10:53:21;7.32;;;2.70;;
23288;SDS011;11813;50.834;4.280;2022-07-10T10:58:44;3.38;;;2.55;;
23288;SDS011;11813;50.834;4.280;2022-07-10T11:06:39;8.63;;;2.65;;
23288;SDS011;11813;50.834;4.280;2022-07-10T11:09:24;4.53;;;2.15;;
23288;SDS011;11813;50.834;4.280;2022-07-10T11:12:00;3.17;;;2.20;;
23288;SDS011;11813;50.834;4.280;2022-07-10T11:14:44;6.63;;;2.20;;
23288;SDS011;11813;50.834;4.280;2022-07-10T11:17:12;5.25;;;2.58;;
23288;SDS011;11813;50.834;4.280;2022-07-10T11:19:38;5.07;;;2.10;;
23288;SDS011;11813;50.834;4.280;2022-07-10T11:30:29;3.67;;;1.70;;
23288;SDS011;11813;50.834;4.280;2022-07-10T11:33:17;2.53;;;1.50;;
23288;SDS011;11813;50.834;4.280;2022-07-10T11:35:46;2.65;;;1.90;;
23288;SDS011;11813;50.834;4.280;2022-07-10T11:38:18;5.22;;;1.75;;
23288;SDS011;11813;50.834;4.280;2022-07-10T11:40:47;3.08;;;1.70;;
23288;SDS011;11813;50.834;4.280;2022-07-10T11:43:13;4.30;;;1.60;;
23288;SDS011;11813;50.834;4.280;2022-07-10T11:45:42;7.38;;;1.63;;
23288;SDS011;11813;50.834;4.280;2022-07-10T11:48:16;3.88;;;1.95;;
23288;SDS011;11813;50.834;4.280;2022-07-10T11:50:43;7.22;;;2.00;;
23288;SDS011;11813;50.834;4.280;2022-07-10T11:53:09;4.40;;;2.10;;
23288;SDS011;11813;50.834;4.280;2022-07-10T11:55:34;2.53;;;1.52;;
23288;SDS011;11813;50.834;4.280;2022-07-10T11:58:12;4.60;;;2.00;;
23288;SDS011;11813;50.834;4.280;2022-07-10T12:00:38;2.50;;;1.45;;
23288;SDS011;11813;50.834;4.280;2022-07-10T12:03:17;5.68;;;1.63;;
23288;SDS011;11813;50.834;4.280;2022-07-10T12:05:44;4.30;;;1.92;;
23288;SDS011;11813;50.834;4.280;2022-07-10T12:08:10;4.35;;;1.85;;
23288;SDS011;11813;50.834;4.280;2022-07-10T12:10:36;5.05;;;1.70;;
23288;SDS011;11813;50.834;4.280;2022-07-10T12:13:05;4.30;;;1.50;;
23288;SDS011;11813;50.834;4.280;2022-07-10T12:15:33;4.55;;;1.60;;
23288;SDS011;11813;50.834;4.280;2022-07-10T12:18:06;1.98;;;1.63;;
23288;SDS011;11813;50.834;4.280;2022-07-10T12:20:33;6.05;;;1.70;;
23288;SDS011;11813;50.834;4.280;2022-07-10T12:22:59;3.15;;;1.42;;
23288;SDS011;11813;50.834;4.280;2022-07-10T12:25:25;3.45;;;1.73;;
23288;SDS011;11813;50.834;4.280;2022-07-10T12:27:57;4.43;;;1.50;;
23288;SDS011;11813;50.834;4.280;2022-07-10T12:30:45;3.05;;;1.50;;
23288;SDS011;11813;50.834;4.280;2022-07-10T12:35:49;5.43;;;1.73;;
23288;SDS011;11813;50.834;4.280;2022-07-10T12:38:25;4.47;;;2.00;;
23288;SDS011;11813;50.834;4.280;2022-07-10T12:41:08;3.47;;;1.77;;
23288;SDS011;11813;50.834;4.280;2022-07-10T12:43:35;4.13;;;1.55;;
23288;SDS011;11813;50.834;4.280;2022-07-10T12:46:07;3.55;;;1.52;;
23288;SDS011;11813;50.834;4.280;2022-07-10T12:48:40;2.30;;;1.63;;
23288;SDS011;11813;50.834;4.280;2022-07-10T12:51:26;4.63;;;1.80;;
23288;SDS011;11813;50.834;4.280;2022-07-10T12:53:53;2.65;;;1.40;;
23288;SDS011;11813;50.834;4.280;2022-07-10T12:56:26;2.83;;;1.40;;
23288;SDS011;11813;50.834;4.280;2022-07-10T12:58:59;2.83;;;1.38;;
23288;SDS011;11813;50.834;4.280;2022-07-10T13:01:26;3.00;;;1.48;;
23288;SDS011;11813;50.834;4.280;2022-07-10T13:03:59;3.38;;;1.42;;
23288;SDS011;11813;50.834;4.280;2022-07-10T13:06:27;3.65;;;1.55;;
23288;SDS011;11813;50.834;4.280;2022-07-10T13:08:53;4.80;;;1.63;;
23288;SDS011;11813;50.834;4.280;2022-07-10T13:11:19;4.95;;;1.52;;
23288;SDS011;11813;50.834;4.280;2022-07-10T13:13:45;4.22;;;1.52;;
23288;SDS011;11813;50.834;4.280;2022-07-10T13:16:10;7.40;;;3.45;;
23288;SDS011;11813;50.834;4.280;2022-07-10T13:18:36;4.80;;;2.05;;
23288;SDS011;11813;50.834;4.280;2022-07-10T13:21:01;4.13;;;1.60;;
23288;SDS011;11813;50.834;4.280;2022-07-10T13:23:29;4.60;;;1.80;;
23288;SDS011;11813;50.834;4.280;2022-07-10T13:25:55;3.30;;;1.70;;
23288;SDS011;11813;50.834;4.280;2022-07-10T13:28:21;5.82;;;1.55;;
23288;SDS011;11813;50.834;4.280;2022-07-10T13:30:47;5.88;;;1.52;;
23288;SDS011;11813;50.834;4.280;2022-07-10T13:33:13;2.72;;;1.52;;
23288;SDS011;11813;50.834;4.280;2022-07-10T13:35:39;2.83;;;1.50;;
23288;SDS011;11813;50.834;4.280;2022-07-10T13:38:06;1.33;;;1.13;;
23288;SDS011;11813;50.834;4.280;2022-07-10T13:40:32;3.38;;;1.10;;
23288;SDS011;11813;50.834;4.280;2022-07-10T13:43:00;4.00;;;1.85;;
23288;SDS011;11813;50.834;4.280;2022-07-10T13:45:26;2.40;;;1.30;;
23288;SDS011;11813;50.834;4.280;2022-07-10T13:47:58;2.83;;;1.63;;
23288;SDS011;11813;50.834;4.280;2022-07-10T13:50:24;2.47;;;1.40;;
23288;SDS011;11813;50.834;4.280;2022-07-10T13:52:50;5.55;;;1.92;;
23288;SDS011;11813;50.834;4.280;2022-07-10T13:55:16;3.28;;;2.08;;
23288;SDS011;11813;50.834;4.280;2022-07-10T13:57:42;4.32;;;1.60;;
23288;SDS011;11813;50.834;4.280;2022-07-10T14:00:08;2.80;;;1.63;;
23288;SDS011;11813;50.834;4.280;2022-07-10T14:02:34;3.10;;;1.83;;
23288;SDS011;11813;50.834;4.280;2022-07-10T14:05:00;4.50;;;1.30;;
23288;SDS011;11813;50.834;4.280;2022-07-10T14:07:25;9.10;;;1.70;;
23288;SDS011;11813;50.834;4.280;2022-07-10T14:09:51;4.00;;;2.38;;
23288;SDS011;11813;50.834;4.280;2022-07-10T14:12:17;4.50;;;1.83;;
23288;SDS011;11813;50.834;4.280;2022-07-10T14:14:43;4.18;;;1.70;;
23288;SDS011;11813;50.834;4.280;2022-07-10T14:17:08;3.00;;;1.48;;
23288;SDS011;11813;50.834;4.280;2022-07-10T14:19:34;5.50;;;2.50;;
23288;SDS011;11813;50.834;4.280;2022-07-10T14:22:00;4.28;;;1.20;;
23288;SDS011;11813;50.834;4.280;2022-07-10T14:24:26;6.22;;;2.05;;
23288;SDS011;11813;50.834;4.280;2022-07-10T14:26:52;3.33;;;1.83;;
23288;SDS011;11813;50.834;4.280;2022-07-10T14:29:18;2.42;;;1.40;;
23288;SDS011;11813;50.834;4.280;2022-07-10T14:31:44;4.18;;;1.90;;
23288;SDS011;11813;50.834;4.280;2022-07-10T14:34:12;4.15;;;1.48;;
23288;SDS011;11813;50.834;4.280;2022-07-10T14:36:38;2.38;;;1.10;;
23288;SDS011;11813;50.834;4.280;2022-07-10T14:39:04;3.55;;;1.88;;
23288;SDS011;11813;50.834;4.280;2022-07-10T14:41:29;2.30;;;1.38;;
23288;SDS011;11813;50.834;4.280;2022-07-10T14:43:55;3.08;;;1.38;;
23288;SDS011;11813;50.834;4.280;2022-07-10T14:46:21;2.92;;;1.70;;
23288;SDS011;11813;50.834;4.280;2022-07-10T14:48:46;2.30;;;1.10;;
23288;SDS011;11813;50.834;4.280;2022-07-10T14:51:12;1.80;;;1.10;;
23288;SDS011;11813;50.834;4.280;2022-07-10T14:53:38;2.53;;;1.52;;
23288;SDS011;11813;50.834;4.280;2022-07-10T14:56:06;6.28;;;1.13;;
23288;SDS011;11813;50.834;4.280;2022-07-10T14:58:32;6.00;;;1.70;;
23288;SDS011;11813;50.834;4.280;2022-07-10T15:00:58;2.95;;;1.10;;
23288;SDS011;11813;50.834;4.280;2022-07-10T15:03:23;3.13;;;1.25;;
23288;SDS011;11813;50.834;4.280;2022-07-10T15:05:49;1.42;;;1.10;;
23288;SDS011;11813;50.834;4.280;2022-07-10T15:08:21;1.55;;;1.10;;
23288;SDS011;11813;50.834;4.280;2022-07-10T15:10:48;2.05;;;1.02;;
23288;SDS011;11813;50.834;4.280;2022-07-10T15:13:14;1.90;;;1.27;;
23288;SDS011;11813;50.834;4.280;2022-07-10T15:15:40;2.60;;;1.10;;
23288;SDS011;11813;50.834;4.280;2022-07-10T15:18:06;2.40;;;1.10;;
23288;SDS011;11813;50.834;4.280;2022-07-10T15:20:32;2.92;;;1.20;;
23288;SDS011;11813;50.834;4.280;2022-07-10T15:22:57;2.50;;;1.15;;